Terminal Aerodrome Forecast
Issued by NWS

Home | Current Version | Previous Version | Text Only | Print | Product List | Glossary On
Versions: 1 2 3 4 5 6 7 8 9 10 11 12 13 14
351
FTUS43 KMQT 040952 AAA
TAFIWD
TAF AMD
KIWD 040952Z 0410/0506 01007KT P6SM SCT040
     FM041400 02010G17KT P6SM BKN030
     FM041700 01011G17KT P6SM SCT030
     FM042100 03006KT P6SM SKC=

USA.gov is the U.S. government's official web portal to all federal, state and local government web resources and services.